FWI41D TFFR-LFPO
Flight info
| Callsign | FWI41D |
|---|---|
| Flight time | N/A |
| Altitude | 35000 |
| Route | CAIRN2F CAIRN DCT BNJEE DCT 23N055W 27N050W/M085F370 30N045W 33N040W 36N035W 38N030W 42N020W/M085F390 DCT PASAS DCT SIVIR/M085F380 UN460 RIVAK/N0495F380 DCT AKEMO DCT TERPO DCT ANG/N0494F270 UN482 DEKJA/N0502F280 UN482 NIMER DCT CAD |
| Aircraft | A35K/H-SDE2E3GHIJ3J4J5LM1ORWXY/LB1D1 |
Departure
| Time | 2026-05-04 12:26 |
|---|---|
| Airport | Maryse Condé International Airport (TFFR) |
Arrival
| Time | N/A |
|---|---|
| Airport | Paris-Orly Airport (LFPO) |
| Time | Latitude | Longitude | Altitude | Speed | Heading |
|---|---|---|---|---|---|
| 2026-05-04 11:41 | 16.26914 | -61.52733 | 27 ft | 0 kts | 40° |
| 2026-05-04 12:14 | 16.26914 | -61.52734 | 27 ft | 0 kts | 40° |
| 2026-05-04 12:18 | 16.26903 | -61.52743 | 27 ft | 4 kts | 37° |
| 2026-05-04 12:18 | 16.26881 | -61.52758 | 27 ft | 4 kts | 25° |
| 2026-05-04 12:18 | 16.26855 | -61.52767 | 24 ft | 4 kts | 5° |
| 2026-05-04 12:19 | 16.26832 | -61.52764 | 23 ft | 4 kts | 311° |
| 2026-05-04 12:19 | 16.26827 | -61.52757 | 23 ft | 0 kts | 281° |
| 2026-05-04 12:21 | 16.26833 | -61.52780 | 26 ft | 11 kts | 283° |
| 2026-05-04 12:21 | 16.26827 | -61.52902 | 27 ft | 19 kts | 234° |
| 2026-05-04 12:21 | 16.26711 | -61.52957 | 27 ft | 19 kts | 190° |
| 2026-05-04 12:21 | 16.26581 | -61.52984 | 31 ft | 20 kts | 197° |
| 2026-05-04 12:22 | 16.26519 | -61.53094 | 30 ft | 19 kts | 273° |
| 2026-05-04 12:22 | 16.26540 | -61.53230 | 28 ft | 20 kts | 279° |
| 2026-05-04 12:22 | 16.26566 | -61.53378 | 30 ft | 21 kts | 280° |
| 2026-05-04 12:22 | 16.26592 | -61.53529 | 29 ft | 21 kts | 280° |
| 2026-05-04 12:23 | 16.26620 | -61.53688 | 28 ft | 27 kts | 280° |
| 2026-05-04 12:23 | 16.26666 | -61.53939 | 29 ft | 42 kts | 281° |
| 2026-05-04 12:23 | 16.26691 | -61.54067 | 26 ft | 42 kts | 281° |
| 2026-05-04 12:23 | 16.26731 | -61.54329 | 23 ft | 23 kts | 260° |
| 2026-05-04 12:24 | 16.26741 | -61.54377 | 23 ft | 2 kts | 346° |
| 2026-05-04 12:24 | 16.26748 | -61.54372 | 20 ft | 1 kts | 31° |
| 2026-05-04 12:24 | 16.26749 | -61.54357 | 22 ft | 3 kts | 93° |
| 2026-05-04 12:24 | 16.26708 | -61.54185 | 24 ft | 57 kts | 103° |
| 2026-05-04 12:25 | 16.26596 | -61.53561 | 29 ft | 117 kts | 98° |
| 2026-05-04 12:25 | 16.26410 | -61.52544 | 40 ft | 167 kts | 103° |
| 2026-05-04 12:25 | 16.26373 | -61.52356 | 105 ft | 168 kts | 103° |
| 2026-05-04 12:25 | 16.26357 | -61.52279 | 138 ft | 168 kts | 103° |
| 2026-05-04 12:26 | 16.26133 | -61.51094 | 810 ft | 167 kts | 101° |
| 2026-05-04 12:26 | 16.25938 | -61.49879 | 1403 ft | 175 kts | 101° |
| 2026-05-04 12:26 | 16.25698 | -61.48565 | 1723 ft | 195 kts | 101° |
| 2026-05-04 12:26 | 16.25426 | -61.47131 | 2089 ft | 216 kts | 101° |
| 2026-05-04 12:27 | 16.25116 | -61.45490 | 2451 ft | 238 kts | 101° |
| 2026-05-04 12:27 | 16.25022 | -61.43774 | 3119 ft | 244 kts | 84° |
| 2026-05-04 12:27 | 16.25621 | -61.42134 | 3921 ft | 245 kts | 58° |
| 2026-05-04 12:27 | 16.26674 | -61.40717 | 4636 ft | 250 kts | 52° |
| 2026-05-04 12:28 | 16.27816 | -61.39334 | 5340 ft | 252 kts | 52° |
| 2026-05-04 12:28 | 16.28961 | -61.37942 | 6041 ft | 255 kts | 52° |
| 2026-05-04 12:28 | 16.30125 | -61.36515 | 6640 ft | 261 kts | 52° |
| 2026-05-04 12:28 | 16.31303 | -61.35060 | 7267 ft | 263 kts | 52° |
| 2026-05-04 12:29 | 16.32491 | -61.33588 | 7944 ft | 269 kts | 52° |
| 2026-05-04 12:29 | 16.33706 | -61.32076 | 8558 ft | 275 kts | 52° |
| 2026-05-04 12:29 | 16.34524 | -61.31060 | 9037 ft | 276 kts | 52° |
| 2026-05-04 12:29 | 16.35767 | -61.29514 | 9701 ft | 282 kts | 51° |
| 2026-05-04 12:30 | 16.37035 | -61.27937 | 10305 ft | 288 kts | 52° |
| 2026-05-04 12:30 | 16.38357 | -61.26287 | 10618 ft | 305 kts | 51° |
| 2026-05-04 12:30 | 16.39752 | -61.24549 | 10902 ft | 321 kts | 51° |
| 2026-05-04 12:30 | 16.41217 | -61.22722 | 11191 ft | 336 kts | 52° |